createdAt,value
2019-04-02T00:00:08.293Z,3.70
2019-04-02T00:02:37.081Z,3.70
2019-04-02T00:05:06.548Z,3.70
2019-04-02T00:07:35.821Z,3.60
2019-04-02T00:10:05.566Z,3.70
2019-04-02T00:12:34.534Z,3.70
2019-04-02T00:15:03.438Z,3.70
2019-04-02T00:17:32.646Z,3.60
2019-04-02T00:20:01.587Z,3.60
2019-04-02T00:22:30.467Z,3.50
2019-04-02T00:24:59.518Z,3.50
2019-04-02T00:27:28.316Z,3.60
2019-04-02T00:29:57.433Z,3.70
2019-04-02T00:32:26.216Z,3.60
2019-04-02T00:34:55.120Z,3.50
2019-04-02T00:37:23.912Z,3.50
2019-04-02T00:39:52.923Z,3.40
2019-04-02T00:42:22.612Z,3.40
2019-04-02T00:44:52.344Z,3.30
2019-04-02T00:47:22.308Z,3.20
2019-04-02T00:49:51.116Z,3.20
2019-04-02T00:52:19.960Z,3.20
2019-04-02T00:54:48.794Z,3.20
2019-04-02T00:57:17.638Z,3.20
2019-04-02T00:59:46.522Z,3.20
2019-04-02T01:02:15.591Z,3.20
2019-04-02T01:04:44.435Z,3.20
2019-04-02T01:07:13.537Z,3.20
2019-04-02T01:09:42.615Z,3.10
2019-04-02T01:12:11.459Z,3.10
2019-04-02T01:14:40.348Z,3.10
2019-04-02T01:17:09.112Z,3.00
2019-04-02T01:19:39.209Z,3.00
2019-04-02T01:22:08.547Z,2.90
2019-04-02T01:24:37.551Z,3.00
2019-04-02T01:27:06.614Z,3.00
2019-04-02T01:29:35.688Z,3.00
2019-04-02T01:32:04.754Z,2.90
2019-04-02T01:34:33.871Z,3.00
2019-04-02T01:37:03.020Z,3.10
2019-04-02T01:39:32.056Z,3.00
2019-04-02T01:42:00.947Z,3.00
2019-04-02T01:44:29.804Z,3.00
2019-04-02T01:46:58.588Z,3.00
2019-04-02T01:49:27.455Z,3.00
2019-04-02T01:51:56.301Z,3.00
2019-04-02T01:54:25.482Z,3.00
2019-04-02T01:56:54.366Z,3.00
2019-04-02T01:59:23.258Z,3.00
2019-04-02T02:01:52.045Z,2.90
2019-04-02T02:04:20.937Z,2.90
2019-04-02T02:06:49.791Z,2.80
2019-04-02T02:09:18.621Z,2.90
2019-04-02T02:11:47.359Z,2.90
2019-04-02T02:14:16.169Z,3.00
2019-04-02T02:16:44.968Z,3.00
2019-04-02T02:19:13.760Z,3.00
2019-04-02T02:21:44.106Z,3.00
2019-04-02T02:24:13.069Z,2.90
2019-04-02T02:26:41.864Z,3.00
2019-04-02T02:29:10.640Z,3.00
2019-04-02T02:31:39.431Z,3.00
2019-04-02T02:34:09.369Z,3.00
2019-04-02T02:36:40.091Z,3.00
2019-04-02T02:39:10.932Z,3.10
2019-04-02T02:42:01.303Z,3.10
2019-04-02T02:44:30.480Z,3.10
2019-04-02T02:46:59.676Z,3.10
2019-04-02T02:49:28.852Z,3.10
2019-04-02T02:51:57.784Z,3.20
2019-04-02T02:54:26.567Z,3.10
2019-04-02T02:56:55.397Z,3.10
2019-04-02T02:59:25.902Z,3.10
2019-04-02T03:01:57.260Z,3.10
2019-04-02T03:04:26.208Z,3.20
2019-04-02T03:06:55.111Z,3.20
2019-04-02T03:09:24.104Z,3.20
2019-04-02T03:11:53.016Z,3.20
2019-04-02T03:14:21.942Z,3.20
2019-04-02T03:16:50.846Z,3.30
2019-04-02T03:19:19.636Z,3.30
2019-04-02T03:21:48.985Z,3.20
2019-04-02T03:24:19.066Z,3.20
2019-04-02T03:26:48.228Z,3.20
2019-04-02T03:29:16.945Z,3.20
2019-04-02T03:31:45.678Z,3.20
2019-04-02T03:34:15.017Z,3.20
2019-04-02T03:36:43.862Z,3.20
2019-04-02T03:39:12.797Z,3.30
2019-04-02T03:41:41.542Z,3.30
2019-04-02T03:44:12.786Z,3.30
2019-04-02T03:46:43.305Z,3.30
2019-04-02T03:49:14.185Z,3.30
2019-04-02T03:51:42.359Z,3.30
2019-04-02T03:54:11.264Z,3.30
2019-04-02T03:56:40.131Z,3.30
2019-04-02T03:59:09.346Z,3.30
2019-04-02T04:01:38.629Z,3.40
2019-04-02T04:04:07.488Z,3.30
2019-04-02T04:06:36.319Z,3.40
2019-04-02T04:09:09.409Z,3.40
2019-04-02T04:11:36.854Z,3.40
2019-04-02T04:14:05.976Z,3.40
2019-04-02T04:16:34.912Z,3.30
2019-04-02T04:19:03.809Z,3.40
2019-04-02T04:21:32.811Z,3.40
2019-04-02T04:24:01.620Z,3.30
2019-04-02T04:26:32.660Z,3.30
2019-04-02T04:29:01.798Z,3.40
2019-04-02T04:31:31.155Z,3.40
2019-04-02T04:34:00.008Z,3.40
2019-04-02T04:36:28.834Z,3.40
2019-04-02T04:38:57.709Z,3.40
2019-04-02T04:41:26.479Z,3.40
2019-04-02T04:43:55.720Z,3.40
2019-04-02T04:46:24.642Z,3.30
2019-04-02T04:48:53.515Z,3.30
2019-04-02T04:51:22.276Z,3.30
2019-04-02T04:53:51.052Z,3.30
2019-04-02T04:56:19.876Z,3.40
2019-04-02T04:58:48.995Z,3.40
2019-04-02T05:01:18.282Z,3.40
2019-04-02T05:04:24.702Z,3.50
2019-04-02T05:06:53.797Z,3.40
2019-04-02T05:09:22.980Z,3.40
2019-04-02T05:11:51.720Z,3.50
2019-04-02T05:14:20.562Z,3.50
2019-04-02T05:16:49.545Z,3.60
2019-04-02T05:19:18.415Z,3.60
2019-04-02T05:21:47.320Z,3.60
2019-04-02T05:24:16.031Z,3.70
2019-04-02T05:26:44.908Z,3.70
2019-04-02T05:29:13.958Z,3.70
2019-04-02T05:31:43.127Z,3.70
2019-04-02T05:34:12.206Z,3.80
2019-04-02T05:36:40.955Z,3.80
2019-04-02T05:39:09.747Z,3.80
2019-04-02T05:41:38.800Z,3.90
2019-04-02T05:44:08.598Z,3.90
2019-04-02T05:46:37.926Z,3.90
2019-04-02T05:49:06.734Z,3.90
2019-04-02T05:51:35.543Z,4.00
2019-04-02T05:54:04.623Z,4.00
2019-04-02T05:56:33.540Z,4.00
2019-04-02T05:59:02.532Z,4.00
2019-04-02T06:01:31.646Z,4.10
2019-04-02T06:04:00.510Z,4.10
2019-04-02T06:06:29.301Z,4.10
2019-04-02T06:08:58.184Z,4.20
2019-04-02T06:11:26.890Z,4.20
2019-04-02T06:13:55.697Z,4.30
2019-04-02T06:16:24.744Z,4.40
2019-04-02T06:18:54.139Z,4.60
2019-04-02T06:21:23.075Z,4.70
2019-04-02T06:23:51.970Z,4.70
2019-04-02T06:26:21.187Z,4.80
2019-04-02T06:28:50.003Z,4.90
2019-04-02T06:31:18.761Z,5.00
2019-04-02T06:33:47.511Z,5.00
2019-04-02T06:36:16.324Z,5.10
2019-04-02T06:38:47.427Z,5.30
2019-04-02T06:41:16.239Z,5.50
2019-04-02T06:43:45.366Z,5.50
2019-04-02T06:46:14.298Z,5.60
2019-04-02T06:48:54.874Z,5.80
2019-04-02T06:51:25.175Z,6.00
2019-04-02T06:53:54.089Z,6.20
2019-04-02T06:56:22.875Z,6.40
2019-04-02T06:58:51.688Z,6.60
2019-04-02T07:01:31.665Z,6.70
2019-04-02T07:03:51.181Z,6.90
2019-04-02T07:06:20.000Z,6.90
2019-04-02T07:08:49.968Z,7.00
2019-04-02T07:11:21.099Z,7.10
2019-04-02T07:13:50.160Z,7.20
2019-04-02T07:16:19.427Z,7.30
2019-04-02T07:18:48.429Z,7.60
2019-04-02T07:21:17.252Z,7.70
2019-04-02T07:23:46.014Z,7.80
2019-04-02T07:26:15.074Z,7.70
2019-04-02T07:28:44.963Z,7.90
2019-04-02T07:31:14.566Z,8.20
2019-04-02T07:33:43.695Z,8.20
2019-04-02T07:36:12.730Z,8.60
2019-04-02T07:38:41.533Z,8.90
2019-04-02T07:41:12.290Z,9.20
2019-04-02T07:43:40.995Z,9.40
2019-04-02T07:46:09.853Z,9.80
2019-04-02T07:48:38.688Z,9.80
2019-04-02T07:51:07.531Z,9.80
2019-04-02T07:53:36.628Z,9.70
2019-04-02T07:56:05.842Z,9.60
2019-04-02T07:58:34.571Z,9.80
2019-04-02T08:01:03.918Z,10.00
2019-04-02T08:03:34.375Z,10.00
2019-04-02T08:06:03.587Z,10.00
2019-04-02T08:08:32.399Z,10.00
2019-04-02T08:11:01.174Z,9.90
2019-04-02T08:13:30.024Z,9.80
2019-04-02T08:15:59.019Z,9.80
2019-04-02T08:18:27.819Z,10.20
2019-04-02T08:20:56.656Z,10.40
2019-04-02T08:23:25.426Z,10.50
2019-04-02T08:25:54.532Z,10.30
2019-04-02T08:28:23.541Z,10.50
2019-04-02T08:30:52.276Z,10.90
2019-04-02T08:33:21.014Z,11.20
2019-04-02T08:35:49.805Z,11.10
2019-04-02T08:38:18.588Z,11.10
2019-04-02T08:40:47.815Z,11.70
2019-04-02T08:43:18.155Z,12.00
2019-04-02T08:45:47.100Z,12.20
2019-04-02T08:48:16.075Z,12.40
2019-04-02T08:50:44.923Z,12.40
2019-04-02T08:53:13.729Z,12.90
2019-04-02T08:55:42.498Z,13.70
2019-04-02T08:58:11.242Z,14.10
2019-04-02T09:00:40.923Z,14.30
2019-04-02T09:03:09.826Z,14.90
2019-04-02T09:05:40.757Z,14.00
2019-04-02T09:08:09.453Z,14.00
2019-04-02T09:10:38.545Z,14.40
2019-04-02T09:13:08.689Z,14.70
2019-04-02T09:15:37.471Z,14.80
2019-04-02T09:18:06.293Z,15.00
2019-04-02T09:20:35.166Z,15.30
2019-04-02T09:23:04.396Z,15.40
2019-04-02T09:25:33.182Z,16.20
2019-04-02T09:28:01.984Z,16.20
2019-04-02T09:30:30.821Z,16.10
2019-04-02T09:32:59.838Z,15.20
2019-04-02T09:35:28.663Z,16.30
2019-04-02T09:37:57.687Z,15.20
2019-04-02T09:40:26.495Z,15.90
2019-04-02T09:42:55.622Z,15.70
2019-04-02T09:45:24.370Z,16.00
2019-04-02T09:47:53.109Z,16.70
2019-04-02T09:50:22.060Z,16.70
2019-04-02T09:52:50.961Z,16.80
2019-04-02T09:55:21.116Z,16.90
2019-04-02T09:57:49.992Z,16.50
2019-04-02T10:00:21.211Z,17.40
2019-04-02T10:02:50.444Z,16.70
2019-04-02T10:05:19.288Z,16.90
2019-04-02T10:07:48.200Z,16.60
2019-04-02T10:10:17.791Z,17.00
2019-04-02T10:12:46.580Z,17.20
2019-04-02T10:15:18.065Z,16.60
2019-04-02T10:17:48.131Z,17.30
2019-04-02T10:20:17.482Z,17.20
2019-04-02T10:22:46.929Z,17.20
2019-04-02T10:25:15.979Z,17.40
2019-04-02T10:27:44.947Z,18.10
2019-04-02T10:30:14.687Z,18.00
2019-04-02T10:32:43.754Z,18.60
2019-04-02T10:35:12.898Z,17.90
2019-04-02T10:37:41.932Z,17.80
2019-04-02T10:40:13.213Z,18.50
2019-04-02T10:42:41.592Z,18.80
2019-04-02T10:45:24.189Z,18.70
2019-04-02T10:47:41.943Z,18.60
2019-04-02T10:50:11.520Z,18.20
2019-04-02T10:52:40.327Z,18.20
2019-04-02T10:55:09.819Z,18.20
2019-04-02T10:57:38.909Z,18.40
2019-04-02T11:00:09.086Z,18.80
2019-04-02T11:02:37.935Z,18.70
2019-04-02T11:05:07.401Z,18.50
2019-04-02T11:07:36.443Z,18.70
2019-04-02T11:10:06.869Z,18.80
2019-04-02T11:12:35.706Z,18.50
2019-04-02T11:15:05.954Z,18.80
2019-04-02T11:17:35.183Z,19.00
2019-04-02T11:20:05.741Z,18.30
2019-04-02T11:22:34.722Z,18.50
2019-04-02T11:25:04.179Z,18.80
2019-04-02T11:27:33.067Z,19.20
2019-04-02T11:30:01.886Z,18.80
2019-04-02T11:32:30.696Z,19.40
2019-04-02T11:34:59.951Z,19.20
2019-04-02T11:37:28.764Z,18.80
2019-04-02T11:39:57.555Z,19.70
2019-04-02T11:42:26.335Z,19.50
2019-04-02T11:44:55.834Z,19.50
2019-04-02T11:47:24.614Z,19.40
2019-04-02T11:49:53.838Z,19.50
2019-04-02T11:52:22.651Z,19.40
2019-04-02T11:54:51.816Z,19.00
2019-04-02T11:57:20.648Z,19.20
2019-04-02T11:59:49.506Z,19.50
2019-04-02T12:02:18.295Z,18.80
2019-04-02T12:04:47.099Z,19.00
2019-04-02T12:07:15.876Z,19.30
2019-04-02T12:09:45.644Z,19.20
2019-04-02T12:12:14.699Z,19.10
2019-04-02T12:14:43.452Z,20.00
2019-04-02T12:17:13.590Z,19.70
2019-04-02T12:19:43.691Z,19.70
2019-04-02T12:22:12.783Z,20.40
2019-04-02T12:24:41.691Z,19.70
2019-04-02T12:27:11.412Z,19.40
2019-04-02T12:29:40.220Z,18.90
2019-04-02T12:32:08.962Z,19.60
2019-04-02T12:34:38.007Z,20.50
2019-04-02T12:37:07.115Z,20.30
2019-04-02T12:39:35.853Z,21.00
2019-04-02T12:42:05.062Z,20.30
2019-04-02T12:44:33.951Z,20.00
2019-04-02T12:47:02.768Z,20.40
2019-04-02T12:49:31.730Z,20.10
2019-04-02T12:52:00.499Z,20.50
2019-04-02T12:54:29.316Z,19.80
2019-04-02T12:56:58.552Z,19.20
2019-04-02T12:59:27.477Z,19.20
2019-04-02T13:01:56.719Z,19.90
2019-04-02T13:04:25.503Z,20.00
2019-04-02T13:06:57.044Z,20.20
2019-04-02T13:09:26.140Z,19.90
2019-04-02T13:11:54.910Z,19.90
2019-04-02T13:14:23.794Z,19.60
2019-04-02T13:16:52.664Z,19.50
2019-04-02T13:19:21.556Z,19.50
2019-04-02T13:21:50.472Z,19.40
2019-04-02T13:24:22.402Z,19.20
2019-04-02T13:26:49.837Z,19.70
2019-04-02T13:29:18.615Z,19.60
2019-04-02T13:31:47.424Z,19.30
2019-04-02T13:34:16.159Z,18.90
2019-04-02T13:36:45.368Z,18.70
2019-04-02T13:39:14.346Z,18.90
2019-04-02T13:41:43.522Z,18.90
2019-04-02T13:44:12.416Z,18.70
2019-04-02T13:46:41.806Z,18.60
2019-04-02T13:49:10.642Z,18.50
2019-04-02T13:51:39.699Z,18.60
2019-04-02T13:54:08.667Z,18.70
2019-04-02T13:56:37.778Z,19.00
2019-04-02T13:59:06.591Z,18.50
2019-04-02T14:01:36.055Z,18.90
2019-04-02T14:04:05.554Z,18.60
2019-04-02T14:06:34.356Z,18.20
2019-04-02T14:09:04.082Z,18.20
2019-04-02T14:11:32.894Z,18.30
2019-04-02T14:14:01.748Z,18.60
2019-04-02T14:16:30.603Z,18.50
2019-04-02T14:18:59.521Z,18.60
2019-04-02T14:21:28.470Z,18.80
2019-04-02T14:24:00.059Z,18.80
2019-04-02T14:26:28.222Z,19.00
2019-04-02T14:28:57.711Z,18.60
2019-04-02T14:31:27.939Z,18.60
2019-04-02T14:33:56.827Z,19.00
2019-04-02T14:36:25.670Z,18.70
2019-04-02T14:38:54.674Z,18.60
2019-04-02T14:41:23.776Z,18.60
2019-04-02T14:43:52.565Z,18.30
2019-04-02T14:46:21.346Z,18.30
2019-04-02T14:48:50.195Z,18.20
2019-04-02T14:51:19.102Z,17.80
2019-04-02T14:53:48.030Z,17.80
2019-04-02T14:56:16.876Z,17.80
2019-04-02T14:58:45.745Z,17.90
2019-04-02T15:01:14.766Z,18.00
2019-04-02T15:03:43.572Z,18.00
2019-04-02T15:06:13.064Z,17.70
2019-04-02T15:08:41.962Z,18.10
2019-04-02T15:11:11.052Z,18.00
2019-04-02T15:13:40.724Z,17.80
2019-04-02T15:16:09.449Z,17.70
2019-04-02T15:18:57.494Z,17.90
2019-04-02T15:21:26.568Z,17.90
2019-04-02T15:23:55.479Z,18.10
2019-04-02T15:26:25.463Z,17.80
2019-04-02T15:28:54.413Z,17.70
2019-04-02T15:31:23.376Z,17.60
2019-04-02T15:33:52.644Z,17.50
2019-04-02T15:36:22.152Z,17.50
2019-04-02T15:38:51.841Z,17.50
2019-04-02T15:41:20.664Z,17.40
2019-04-02T15:43:50.065Z,17.10
2019-04-02T15:46:18.992Z,17.10
2019-04-02T15:48:47.919Z,17.10
2019-04-02T15:51:16.883Z,17.20
2019-04-02T15:53:45.779Z,16.90
2019-04-02T15:56:14.574Z,16.90
2019-04-02T15:58:43.312Z,16.90
2019-04-02T16:01:12.206Z,17.00
2019-04-02T16:03:42.470Z,17.00
2019-04-02T16:06:11.952Z,17.00
2019-04-02T16:08:43.546Z,16.80
2019-04-02T16:11:12.828Z,16.90
2019-04-02T16:13:42.913Z,16.70
2019-04-02T16:16:12.320Z,16.50
2019-04-02T16:18:41.837Z,16.30
2019-04-02T16:21:10.664Z,16.10
2019-04-02T16:23:39.971Z,16.10
2019-04-02T16:26:10.283Z,16.00
2019-04-02T16:28:39.121Z,15.80
2019-04-02T16:31:08.057Z,15.70
2019-04-02T16:33:37.121Z,15.60
2019-04-02T16:36:07.320Z,15.40
2019-04-02T16:38:36.254Z,15.20
2019-04-02T16:41:05.223Z,15.20
2019-04-02T16:43:34.057Z,15.10
2019-04-02T16:46:03.049Z,15.10
2019-04-02T16:48:31.922Z,15.00
2019-04-02T16:51:00.722Z,14.90
2019-04-02T16:53:29.687Z,14.80
2019-04-02T16:55:58.526Z,14.80
2019-04-02T16:58:27.391Z,14.60
2019-04-02T17:00:56.718Z,14.60
2019-04-02T17:03:27.183Z,14.60
2019-04-02T17:05:57.968Z,14.60
2019-04-02T17:08:28.780Z,14.50
2019-04-02T17:10:57.723Z,14.40
2019-04-02T17:13:26.566Z,14.30
2019-04-02T17:15:55.433Z,14.30
2019-04-02T17:18:24.335Z,14.30
2019-04-02T17:20:53.917Z,14.20
2019-04-02T17:23:23.160Z,14.10
2019-04-02T17:25:52.098Z,14.10
2019-04-02T17:28:21.084Z,14.00
2019-04-02T17:30:50.016Z,13.90
2019-04-02T17:33:18.880Z,13.90
2019-04-02T17:35:47.884Z,13.80
2019-04-02T17:38:17.432Z,13.70
2019-04-02T17:40:46.328Z,13.70
2019-04-02T17:43:15.362Z,13.60
2019-04-02T17:45:44.330Z,13.60
2019-04-02T17:48:13.200Z,13.50
2019-04-02T17:50:42.181Z,13.50
2019-04-02T17:53:11.043Z,13.40
2019-04-02T17:55:40.571Z,13.30
2019-04-02T17:58:12.150Z,13.40
2019-04-02T18:00:40.922Z,13.30
2019-04-02T18:03:10.255Z,13.30
2019-04-02T18:05:39.920Z,13.30
2019-04-02T18:08:09.307Z,13.20
2019-04-02T18:10:40.269Z,13.20
2019-04-02T18:13:08.810Z,13.20
2019-04-02T18:15:38.412Z,13.10
2019-04-02T18:18:07.349Z,13.00
2019-04-02T18:20:36.379Z,13.00
2019-04-02T18:23:05.725Z,12.90
2019-04-02T18:25:34.788Z,12.70
2019-04-02T18:28:03.646Z,12.70
2019-04-02T18:30:32.743Z,12.70
2019-04-02T18:33:01.603Z,12.70
2019-04-02T18:35:31.067Z,12.70
2019-04-02T18:38:00.186Z,12.60
2019-04-02T18:40:29.663Z,12.60
2019-04-02T18:42:58.766Z,12.50
2019-04-02T18:45:27.691Z,12.50
2019-04-02T18:47:56.593Z,12.50
2019-04-02T18:50:25.400Z,12.50
2019-04-02T18:52:54.191Z,12.50
2019-04-02T18:55:24.537Z,12.50
2019-04-02T18:57:55.978Z,12.50
2019-04-02T19:00:24.847Z,12.50
2019-04-02T19:02:53.935Z,12.50
2019-04-02T19:05:22.942Z,12.50
2019-04-02T19:07:51.885Z,12.40
2019-04-02T19:10:21.334Z,12.40
2019-04-02T19:12:50.326Z,12.40
2019-04-02T19:15:19.979Z,12.30
2019-04-02T19:17:48.905Z,12.20
2019-04-02T19:20:18.007Z,12.10
2019-04-02T19:22:47.145Z,12.20
2019-04-02T19:25:16.396Z,12.10
2019-04-02T19:27:45.407Z,12.20
2019-04-02T19:30:14.743Z,12.20
2019-04-02T19:32:43.564Z,12.20
2019-04-02T19:35:13.292Z,12.20
2019-04-02T19:37:44.821Z,12.20
2019-04-02T19:40:15.925Z,12.10
2019-04-02T19:42:45.153Z,12.10
2019-04-02T19:45:14.270Z,12.20
2019-04-02T19:47:43.700Z,12.20
2019-04-02T19:50:12.864Z,12.20
2019-04-02T19:52:43.666Z,12.10
2019-04-02T19:55:13.972Z,12.10
2019-04-02T19:57:42.793Z,12.10
2019-04-02T20:00:14.012Z,12.10
2019-04-02T20:02:43.078Z,12.10
2019-04-02T20:05:12.515Z,12.10
2019-04-02T20:07:43.437Z,12.00
2019-04-02T20:10:12.838Z,12.00
2019-04-02T20:12:41.834Z,11.90
2019-04-02T20:15:11.336Z,11.80
2019-04-02T20:17:40.592Z,11.80
2019-04-02T20:20:10.917Z,11.70
2019-04-02T20:22:41.862Z,11.70
2019-04-02T20:25:10.339Z,11.70
2019-04-02T20:27:39.212Z,11.70
2019-04-02T20:30:08.489Z,11.60
2019-04-02T20:32:38.082Z,11.60
2019-04-02T20:35:07.769Z,11.70
2019-04-02T20:37:37.084Z,11.70
2019-04-02T20:40:06.632Z,11.60
2019-04-02T20:42:35.417Z,11.60
2019-04-02T20:45:05.039Z,11.70
2019-04-02T20:47:34.187Z,11.70
2019-04-02T20:50:03.201Z,11.70
2019-04-02T20:52:32.032Z,11.70
2019-04-02T20:55:01.199Z,11.70
2019-04-02T20:57:29.994Z,11.80
2019-04-02T20:59:58.771Z,11.80
2019-04-02T21:02:28.032Z,11.80
2019-04-02T21:04:57.985Z,11.70
2019-04-02T21:07:26.952Z,11.80
2019-04-02T21:09:55.777Z,11.90
2019-04-02T21:12:24.995Z,11.80
2019-04-02T21:14:53.881Z,11.80
2019-04-02T21:17:22.655Z,11.70
2019-04-02T21:19:51.454Z,11.70
2019-04-02T21:22:20.884Z,11.80
2019-04-02T21:24:49.721Z,11.80
2019-04-02T21:27:21.278Z,11.80
2019-04-02T21:29:49.448Z,11.90
2019-04-02T21:32:18.225Z,11.90
2019-04-02T21:34:47.027Z,11.90
2019-04-02T21:37:17.890Z,11.80
2019-04-02T21:39:46.563Z,11.80
2019-04-02T21:42:15.599Z,11.80
2019-04-02T21:44:44.431Z,11.80
2019-04-02T21:47:13.360Z,11.80
2019-04-02T21:49:42.256Z,11.90
2019-04-02T21:52:11.171Z,11.80
2019-04-02T21:54:41.796Z,11.90
2019-04-02T21:57:12.081Z,12.00
2019-04-02T21:59:41.533Z,11.90
2019-04-02T22:02:10.676Z,12.00
2019-04-02T22:04:40.764Z,12.00
2019-04-02T22:07:11.924Z,12.00
2019-04-02T22:09:40.589Z,12.00
2019-04-02T22:12:12.363Z,11.90
2019-04-02T22:14:42.516Z,12.00
2019-04-02T22:17:13.536Z,12.00
2019-04-02T22:19:43.317Z,12.00
2019-04-02T22:22:13.248Z,12.00
2019-04-02T22:24:43.291Z,11.90
2019-04-02T22:27:13.105Z,11.90
2019-04-02T22:29:42.849Z,11.80
2019-04-02T22:32:14.692Z,11.90
2019-04-02T22:34:48.910Z,11.80
2019-04-02T22:37:12.893Z,11.90
2019-04-02T22:39:41.799Z,11.80
2019-04-02T22:42:10.700Z,11.80
2019-04-02T22:44:40.705Z,11.80
2019-04-02T22:47:09.782Z,11.80
2019-04-02T22:49:38.627Z,11.90
2019-04-02T22:52:07.390Z,11.90
2019-04-02T22:54:36.194Z,12.00
2019-04-02T22:57:05.032Z,12.00
2019-04-02T22:59:33.815Z,12.00
2019-04-02T23:02:03.081Z,11.90
2019-04-02T23:04:33.036Z,11.80
2019-04-02T23:07:02.357Z,11.80
2019-04-02T23:20:13.402Z,12.00
2019-04-02T23:22:41.615Z,12.00
2019-04-02T23:25:10.978Z,12.00
2019-04-02T23:27:39.846Z,12.00
2019-04-02T23:30:09.138Z,12.00
2019-04-02T23:32:38.408Z,11.90
2019-04-02T23:35:07.632Z,11.90
2019-04-02T23:37:36.494Z,11.90
2019-04-02T23:40:06.019Z,11.90
2019-04-02T23:42:34.832Z,11.90
2019-04-02T23:45:04.885Z,11.90
2019-04-02T23:47:34.022Z,11.90
2019-04-02T23:50:04.516Z,11.90
2019-04-02T23:52:33.902Z,11.90
2019-04-02T23:55:03.729Z,11.80
2019-04-02T23:57:33.818Z,11.80
